Time;durP1;ratioP1;P1;durP2;ratioP2;P2;SDS_P1;SDS_P2;PMS_P1;PMS_P2;Temp;Humidity;BMP_temperature;BMP_pressure;BME280_temperature;BME280_humidity;BME280_pressure;Samples;Min_cycle;Max_cycle;Signal;HPM_P1;HPM_P2
2022/11/26 00:01:28;;;;;;;;;;;;;;;3.75;100.00;102380.66;5054828;28;19954;-77
2022/11/26 00:03:55;;;;;;;;;;;;;;;3.74;100.00;102389.41;5055953;28;20014;-77
2022/11/26 00:06:27;;;;;;;;;;;;;;;3.74;100.00;102386.78;5063520;28;19935;-77
2022/11/26 00:08:52;;;;;;;;;;;;;;;3.74;100.00;102389.41;5065506;28;20389;-77
2022/11/26 00:11:18;;;;;;;;;;;;;;;3.74;100.00;102388.50;5057256;28;19932;-77
2022/11/26 00:13:43;;;;;;;;;;;;;;;3.74;100.00;102388.50;5054664;28;20403;-77
2022/11/26 00:16:12;;;;;;;;;;;;;;;3.75;100.00;102392.88;5059096;28;20015;-77
2022/11/26 00:18:38;;;;;;;;;;;;;;;3.74;100.00;102393.75;5054889;28;19928;-77
2022/11/26 00:21:03;;;;;;;;;;;;;;;3.74;100.00;102393.75;5056992;28;19928;-77
2022/11/26 00:23:28;;;;;;;;;;;;;;;3.73;100.00;102398.13;5059712;28;19936;-77
2022/11/26 00:26:00;;;;;;;;;;;;;;;3.73;100.00;102398.13;5042971;28;19947;-77
2022/11/26 00:28:25;;;;;;;;;;;;;;;3.72;100.00;102398.09;5054518;28;20526;-77
2022/11/26 00:30:51;;;;;;;;;;;;;;;3.70;100.00;102398.09;5054793;28;20800;-77
2022/11/26 00:33:16;;;;;;;;;;;;;;;3.70;100.00;102413.81;5054655;28;20410;-77
2022/11/26 00:35:42;;;;;;;;;;;;;;;3.72;100.00;102417.34;5054597;28;20345;-78
2022/11/26 00:38:08;;;;;;;;;;;;;;;3.71;100.00;102410.31;5063728;28;19935;-77
2022/11/26 00:40:34;;;;;;;;;;;;;;;3.70;100.00;102413.81;5061374;28;19990;-77
2022/11/26 00:42:59;;;;;;;;;;;;;;;3.70;100.00;102418.19;5062256;27;20066;-77
2022/11/26 00:45:28;;;;;;;;;;;;;;;3.70;100.00;102412.94;5059814;28;19932;-77
2022/11/26 00:47:54;;;;;;;;;;;;;;;3.69;100.00;102419.06;5059923;28;19924;-77
2022/11/26 00:50:20;;;;;;;;;;;;;;;3.69;100.00;102416.44;5060741;28;21468;-78
2022/11/26 00:52:46;;;;;;;;;;;;;;;3.67;100.00;102409.41;5060203;28;19935;-77
2022/11/26 00:55:28;;;;;;;;;;;;;;;3.65;100.00;102411.16;5043860;28;20047;-78
2022/11/26 00:57:55;;;;;;;;;;;;;;;3.65;100.00;102415.53;5060489;28;19928;-77
2022/11/26 01:00:22;;;;;;;;;;;;;;;3.61;100.00;102419.88;5061303;28;20545;-77
2022/11/26 01:02:47;;;;;;;;;;;;;;;3.61;100.00;102427.72;5060041;28;19924;-77
2022/11/26 01:05:13;;;;;;;;;;;;;;;3.61;100.00;102425.09;5058394;28;19931;-77
2022/11/26 01:07:38;;;;;;;;;;;;;;;3.60;100.00;102428.56;5060754;28;19928;-77
2022/11/26 01:10:04;;;;;;;;;;;;;;;3.61;100.00;102422.50;5054572;28;20461;-77
2022/11/26 01:12:30;;;;;;;;;;;;;;;3.63;100.00;102433.84;5060003;28;20183;-77
2022/11/26 01:14:55;;;;;;;;;;;;;;;3.62;100.00;102432.09;5055996;28;20027;-77
2022/11/26 01:17:20;;;;;;;;;;;;;;;3.61;100.00;102426.84;5055117;27;20405;-77
2022/11/26 01:19:46;;;;;;;;;;;;;;;3.60;100.00;102439.03;5055376;28;19938;-77
2022/11/26 01:22:21;;;;;;;;;;;;;;;3.60;100.00;102440.81;5057641;28;20441;-77
2022/11/26 01:24:47;;;;;;;;;;;;;;;3.63;100.00;102441.72;5057232;28;19927;-77
2022/11/26 01:27:12;;;;;;;;;;;;;;;3.63;100.00;102444.31;5056160;28;19932;-77
2022/11/26 01:29:38;;;;;;;;;;;;;;;3.63;100.00;102439.09;5048904;28;19935;-77
2022/11/26 01:32:03;;;;;;;;;;;;;;;3.65;100.00;102447.81;5055986;28;20610;-77
2022/11/26 01:34:29;;;;;;;;;;;;;;;3.64;100.00;102446.06;5052855;28;19998;-77
2022/11/26 01:36:54;;;;;;;;;;;;;;;3.64;100.00;102450.41;5058332;28;20455;-77
2022/11/26 01:39:20;;;;;;;;;;;;;;;3.66;100.00;102449.56;5054030;28;19970;-77
2022/11/26 01:42:06;;;;;;;;;;;;;;;3.66;100.00;102438.25;5052287;28;20451;-77
2022/11/26 01:44:32;;;;;;;;;;;;;;;3.66;100.00;102449.56;5048355;28;20340;-77
2022/11/26 01:46:58;;;;;;;;;;;;;;;3.67;100.00;102446.09;5055988;28;20432;-77
2022/11/26 01:49:31;;;;;;;;;;;;;;;3.70;100.00;102454.88;5052523;28;19924;-77
2022/11/26 01:52:15;;;;;;;;;;;;;;;3.72;100.00;102447.88;5058977;28;19944;-77
2022/11/26 01:54:41;;;;;;;;;;;;;;;3.72;100.00;102442.66;5060778;27;19940;-77
2022/11/26 01:57:08;;;;;;;;;;;;;;;3.72;100.00;102445.25;5054927;28;19936;-77
2022/11/26 01:59:35;;;;;;;;;;;;;;;3.73;100.00;102442.66;5055933;28;19928;-77
2022/11/26 02:02:00;;;;;;;;;;;;;;;3.73;100.00;102449.63;5055426;28;20560;-77
2022/11/26 02:04:26;;;;;;;;;;;;;;;3.72;100.00;102455.75;5055802;28;19924;-77
2022/11/26 02:06:52;;;;;;;;;;;;;;;3.70;100.00;102449.63;5042997;28;19929;-77
2022/11/26 02:09:18;;;;;;;;;;;;;;;3.69;100.00;102453.97;5053728;28;20041;-77
2022/11/26 02:11:43;;;;;;;;;;;;;;;3.66;100.00;102454.81;5049958;28;20005;-77
2022/11/26 02:14:11;;;;;;;;;;;;;;;3.63;100.00;102449.56;5052456;28;19932;-77
2022/11/26 02:16:45;;;;;;;;;;;;;;;3.61;100.00;102456.53;5057685;28;20279;-77
2022/11/26 02:19:10;;;;;;;;;;;;;;;3.60;100.00;102446.91;5055191;28;19928;-77
2022/11/26 02:21:36;;;;;;;;;;;;;;;3.62;100.00;102453.06;5053874;28;19949;-77
2022/11/26 02:24:22;;;;;;;;;;;;;;;3.63;100.00;102451.28;5035940;28;19967;-77
2022/11/26 02:26:47;;;;;;;;;;;;;;;3.64;100.00;102445.19;5052513;28;19928;-77
2022/11/26 02:29:14;;;;;;;;;;;;;;;3.64;100.00;102446.06;5054561;28;19928;-77
2022/11/26 02:31:43;;;;;;;;;;;;;;;3.66;100.00;102452.19;5051259;28;19931;-77
2022/11/26 02:34:14;;;;;;;;;;;;;;;3.66;100.00;102460.06;5056342;28;19929;-77
2022/11/26 02:36:41;;;;;;;;;;;;;;;3.66;100.00;102462.69;5060201;28;19924;-77
2022/11/26 02:39:14;;;;;;;;;;;;;;;3.66;100.00;102461.81;5041569;28;20684;-77
2022/11/26 02:41:44;;;;;;;;;;;;;;;3.67;100.00;102464.44;5056154;28;19958;-77
2022/11/26 02:44:10;;;;;;;;;;;;;;;3.73;100.00;102461.00;5058480;28;20637;-77
2022/11/26 02:46:36;;;;;;;;;;;;;;;3.76;100.00;102465.41;5057631;28;19928;-77
2022/11/26 02:49:01;;;;;;;;;;;;;;;3.78;100.00;102467.19;5059063;28;19928;-77
2022/11/26 02:51:27;;;;;;;;;;;;;;;3.82;100.00;102472.44;5063948;28;20056;-77
2022/11/26 02:53:52;;;;;;;;;;;;;;;3.81;100.00;102468.91;5056766;28;19960;-77
2022/11/26 02:56:25;;;;;;;;;;;;;;;3.83;100.00;102472.44;5042990;28;20379;-77
2022/11/26 02:58:51;;;;;;;;;;;;;;;3.85;100.00;102475.06;5067393;28;19920;-77
2022/11/26 03:01:18;;;;;;;;;;;;;;;3.84;100.00;102479.44;5043792;28;19925;-77
2022/11/26 03:03:45;;;;;;;;;;;;;;;3.87;100.00;102479.47;5060223;28;19912;-77
2022/11/26 03:06:11;;;;;;;;;;;;;;;3.88;100.00;102481.22;5051763;28;21527;-77
2022/11/26 03:08:36;;;;;;;;;;;;;;;3.90;100.00;102495.22;5017875;28;19928;-77
2022/11/26 03:11:02;;;;;;;;;;;;;;;3.91;100.00;102496.97;5057217;28;20027;-77
2022/11/26 03:13:27;;;;;;;;;;;;;;;3.95;100.00;102492.63;5055351;28;19928;-77
2022/11/26 03:15:53;;;;;;;;;;;;;;;3.99;100.00;102494.44;5050216;28;19986;-77
2022/11/26 03:18:18;;;;;;;;;;;;;;;4.00;100.00;102495.28;5053950;28;19932;-77
2022/11/26 03:20:44;;;;;;;;;;;;;;;4.01;100.00;102494.41;5056900;28;20422;-77
2022/11/26 03:23:09;;;;;;;;;;;;;;;4.02;100.00;102501.41;5054813;28;19932;-77
2022/11/26 03:25:34;;;;;;;;;;;;;;;4.00;100.00;102504.06;5053734;28;20383;-77
2022/11/26 03:28:00;;;;;;;;;;;;;;;4.00;100.00;102505.78;5060372;28;19932;-77
2022/11/26 03:30:25;;;;;;;;;;;;;;;4.01;100.00;102507.53;5055430;28;19932;-77
2022/11/26 03:32:51;;;;;;;;;;;;;;;4.01;100.00;102512.78;5060689;28;19928;-77
2022/11/26 03:35:16;;;;;;;;;;;;;;;4.00;100.00;102506.66;5058420;27;19939;-77
2022/11/26 03:37:42;;;;;;;;;;;;;;;4.00;100.00;102511.91;5062257;28;19985;-77
2022/11/26 03:40:07;;;;;;;;;;;;;;;4.01;100.00;102513.66;5062261;28;19927;-77
2022/11/26 03:42:33;;;;;;;;;;;;;;;4.01;100.00;102513.66;5056494;28;19929;-77
2022/11/26 03:44:58;;;;;;;;;;;;;;;4.00;100.00;102518.88;5056797;28;19994;-77
2022/11/26 03:47:24;;;;;;;;;;;;;;;3.99;100.00;102511.88;5056848;28;20333;-77
2022/11/26 03:49:49;;;;;;;;;;;;;;;3.99;100.00;102517.13;5062745;28;19929;-77
2022/11/26 03:52:14;;;;;;;;;;;;;;;4.00;100.00;102516.25;5061424;28;19964;-77
2022/11/26 03:54:40;;;;;;;;;;;;;;;4.01;100.00;102512.78;5056260;28;20286;-77
2022/11/26 03:57:05;;;;;;;;;;;;;;;4.02;100.00;102519.75;5058257;28;19935;-77
2022/11/26 03:59:31;;;;;;;;;;;;;;;4.00;100.00;102513.63;5057096;28;19933;-77
2022/11/26 04:01:56;;;;;;;;;;;;;;;3.99;100.00;102522.38;5051861;28;19925;-77
2022/11/26 04:04:21;;;;;;;;;;;;;;;3.97;100.00;102509.25;5059464;28;19940;-77
2022/11/26 04:06:47;;;;;;;;;;;;;;;3.95;100.00;102508.38;5054453;28;19970;-77
2022/11/26 04:09:12;;;;;;;;;;;;;;;3.96;100.00;102506.63;5037270;28;19990;-77
2022/11/26 04:11:38;;;;;;;;;;;;;;;3.95;100.00;102508.38;5056371;28;19939;-77
2022/11/26 04:14:03;;;;;;;;;;;;;;;3.96;100.00;102523.22;5053746;28;20395;-77
2022/11/26 04:16:28;;;;;;;;;;;;;;;3.96;100.00;102519.75;5054682;28;19932;-77
2022/11/26 04:18:54;;;;;;;;;;;;;;;3.95;100.00;102516.22;5055533;28;20025;-77
2022/11/26 04:21:19;;;;;;;;;;;;;;;3.94;100.00;102517.09;5043600;28;19928;-77
2022/11/26 04:23:45;;;;;;;;;;;;;;;3.91;100.00;102515.31;5056292;28;20019;-77
2022/11/26 04:26:10;;;;;;;;;;;;;;;3.90;100.00;102521.44;5055844;28;20529;-77
2022/11/26 04:28:35;;;;;;;;;;;;;;;3.88;100.00;102523.13;5057046;28;19928;-77
2022/11/26 04:31:01;;;;;;;;;;;;;;;3.88;100.00;102527.50;5071107;28;20052;-77
2022/11/26 04:33:26;;;;;;;;;;;;;;;3.86;100.00;102524.88;5058408;28;19928;-77
2022/11/26 04:35:52;;;;;;;;;;;;;;;3.84;100.00;102529.22;5057252;28;19928;-77
2022/11/26 04:38:17;;;;;;;;;;;;;;;3.84;100.00;102536.19;5055026;28;19924;-77
2022/11/26 04:40:43;;;;;;;;;;;;;;;3.82;100.00;102537.94;5060974;28;19934;-77
2022/11/26 04:43:08;;;;;;;;;;;;;;;3.81;100.00;102544.91;5061114;28;20891;-77
2022/11/26 04:45:34;;;;;;;;;;;;;;;3.80;100.00;102541.44;5058642;28;19994;-77
2022/11/26 04:47:59;;;;;;;;;;;;;;;3.82;100.00;102546.69;5059235;28;20565;-77
2022/11/26 04:50:24;;;;;;;;;;;;;;;3.85;100.00;102544.09;5061672;28;20143;-77
2022/11/26 04:52:50;;;;;;;;;;;;;;;3.88;100.00;102548.47;5059297;28;20571;-77
2022/11/26 04:55:16;;;;;;;;;;;;;;;3.90;100.00;102547.63;5048090;28;19932;-77
2022/11/26 04:57:41;;;;;;;;;;;;;;;3.90;100.00;102558.13;5062280;28;19935;-77
2022/11/26 05:00:07;;;;;;;;;;;;;;;3.90;100.00;102563.34;5064723;28;19937;-77
2022/11/26 05:02:33;;;;;;;;;;;;;;;3.91;100.00;102567.72;5042097;28;19935;-77
2022/11/26 05:04:58;;;;;;;;;;;;;;;3.89;100.00;102566.84;5054525;28;19932;-76
2022/11/26 05:07:23;;;;;;;;;;;;;;;3.87;100.00;102565.06;5057739;28;19928;-77
2022/11/26 05:09:49;;;;;;;;;;;;;;;3.85;100.00;102553.66;5048568;28;19930;-76
2022/11/26 05:12:14;;;;;;;;;;;;;;;3.81;100.00;102560.63;5053999;28;20019;-76
2022/11/26 05:14:40;;;;;;;;;;;;;;;3.78;100.00;102566.75;5056362;28;19929;-76
2022/11/26 05:17:05;;;;;;;;;;;;;;;3.73;100.00;102562.28;5057928;28;19935;-76
2022/11/26 05:19:30;;;;;;;;;;;;;;;3.69;100.00;102563.13;5056968;28;19932;-77
2022/11/26 05:21:56;;;;;;;;;;;;;;;3.63;100.00;102562.19;5058859;28;19947;-77
2022/11/26 05:24:21;;;;;;;;;;;;;;;3.58;100.00;102571.75;5062070;28;19932;-76
2022/11/26 05:26:46;;;;;;;;;;;;;;;3.52;100.00;102569.94;5056522;28;19932;-76
2022/11/26 05:29:12;;;;;;;;;;;;;;;3.49;100.00;102579.50;5045505;28;19932;-78
2022/11/26 05:31:37;;;;;;;;;;;;;;;3.45;100.00;102585.56;5056108;28;19932;-76
2022/11/26 05:34:03;;;;;;;;;;;;;;;3.43;100.00;102576.81;5060727;28;19936;-76
2022/11/26 05:36:28;;;;;;;;;;;;;;;3.39;100.00;102574.13;5055611;28;20817;-77
2022/11/26 05:38:53;;;;;;;;;;;;;;;3.37;100.00;102577.59;5054554;28;19932;-77
2022/11/26 05:41:19;;;;;;;;;;;;;;;3.34;100.00;102573.22;5054989;28;20394;-77
2022/11/26 05:43:44;;;;;;;;;;;;;;;3.31;100.00;102583.63;5057622;28;19957;-77
2022/11/26 05:46:10;;;;;;;;;;;;;;;3.29;100.00;102579.22;5055904;28;19932;-77
2022/11/26 05:48:35;;;;;;;;;;;;;;;3.25;100.00;102579.22;5040440;28;20409;-77
2022/11/26 05:51:01;;;;;;;;;;;;;;;3.24;100.00;102581.81;5054800;28;19976;-77
2022/11/26 05:53:26;;;;;;;;;;;;;;;3.22;100.00;102583.53;5060103;28;19958;-77
2022/11/26 05:55:52;;;;;;;;;;;;;;;3.21;100.00;102584.38;5055842;28;19980;-78
2022/11/26 05:58:17;;;;;;;;;;;;;;;3.20;100.00;102580.88;5031954;28;19933;-78
2022/11/26 06:00:43;;;;;;;;;;;;;;;3.19;100.00;102575.63;5049442;28;19946;-78
2022/11/26 06:03:08;;;;;;;;;;;;;;;3.18;100.00;102587.84;5056778;28;19939;-78
2022/11/26 06:05:33;;;;;;;;;;;;;;;3.16;100.00;102592.16;5055194;28;20340;-77
2022/11/26 06:07:59;;;;;;;;;;;;;;;3.14;100.00;102587.78;5056717;28;19932;-78
2022/11/26 06:10:24;;;;;;;;;;;;;;;3.10;100.00;102582.50;5043690;28;19947;-78
2022/11/26 06:12:50;;;;;;;;;;;;;;;3.08;100.00;102585.94;5057897;28;19921;-76
2022/11/26 06:15:15;;;;;;;;;;;;;;;3.05;100.00;102592.00;5053358;28;19977;-76
2022/11/26 06:17:41;;;;;;;;;;;;;;;3.05;100.00;102596.38;5054469;28;19928;-77
2022/11/26 06:20:06;;;;;;;;;;;;;;;3.06;100.00;102593.75;5056877;28;19981;-77
2022/11/26 06:22:36;;;;;;;;;;;;;;;3.07;100.00;102592.03;5052938;28;20301;-76
2022/11/26 06:25:01;;;;;;;;;;;;;;;3.09;100.00;102598.16;5040047;28;20065;-76
2022/11/26 06:27:27;;;;;;;;;;;;;;;3.09;100.00;102593.81;5053531;28;20357;-78
2022/11/26 06:29:52;;;;;;;;;;;;;;;3.10;100.00;102603.44;5057475;28;19928;-77
2022/11/26 06:32:17;;;;;;;;;;;;;;;3.10;100.00;102606.06;5050020;28;19928;-77
2022/11/26 06:34:43;;;;;;;;;;;;;;;3.10;100.00;102610.38;5050326;27;19936;-78
2022/11/26 06:37:08;;;;;;;;;;;;;;;3.10;100.00;102611.28;5046513;28;19966;-78
2022/11/26 06:39:34;;;;;;;;;;;;;;;3.10;100.00;102616.53;5044194;28;20272;-78
2022/11/26 06:41:59;;;;;;;;;;;;;;;3.10;100.00;102616.53;5060744;28;19924;-77
2022/11/26 06:44:25;;;;;;;;;;;;;;;3.09;100.00;102619.09;5056689;28;20022;-77
2022/11/26 06:46:50;;;;;;;;;;;;;;;3.07;100.00;102632.19;5060814;28;20296;-78
2022/11/26 06:49:15;;;;;;;;;;;;;;;3.05;100.00;102627.78;5053984;28;19943;-78
2022/11/26 06:51:41;;;;;;;;;;;;;;;3.03;100.00;102625.13;5060492;28;20378;-77
2022/11/26 06:54:06;;;;;;;;;;;;;;;3.00;100.00;102632.97;5058756;28;20322;-78
2022/11/26 06:56:34;;;;;;;;;;;;;;;3.00;100.00;102625.09;5059273;28;19924;-78
2022/11/26 06:58:59;;;;;;;;;;;;;;;3.01;100.00;102632.09;5061267;28;20374;-76
2022/11/26 07:01:25;;;;;;;;;;;;;;;3.02;100.00;102626.00;5060205;28;19972;-78
2022/11/26 07:03:51;;;;;;;;;;;;;;;3.03;100.00;102630.38;5063974;28;19924;-78
2022/11/26 07:06:17;;;;;;;;;;;;;;;3.04;100.00;102639.97;5064241;28;19978;-78
2022/11/26 07:08:43;;;;;;;;;;;;;;;3.06;100.00;102638.25;5077455;28;20030;-78
2022/11/26 07:11:09;;;;;;;;;;;;;;;3.11;100.00;102639.22;5060230;28;19925;-78
2022/11/26 07:13:35;;;;;;;;;;;;;;;3.16;100.00;102633.19;5067793;28;19932;-78
2022/11/26 07:16:01;;;;;;;;;;;;;;;3.19;100.00;102635.81;5060698;28;19933;-79
2022/11/26 07:18:27;;;;;;;;;;;;;;;3.21;100.00;102641.97;5062064;28;19935;-80
2022/11/26 07:20:52;;;;;;;;;;;;;;;3.23;100.00;102645.50;5058205;28;21318;-81
2022/11/26 07:23:18;;;;;;;;;;;;;;;3.23;100.00;102635.03;5026316;28;20638;-78
2022/11/26 07:25:43;;;;;;;;;;;;;;;3.26;100.00;102640.28;5062605;28;19931;-78
2022/11/26 07:28:08;;;;;;;;;;;;;;;3.28;100.00;102646.44;5063456;28;20530;-77
2022/11/26 07:30:34;;;;;;;;;;;;;;;3.32;100.00;102657.84;5061502;28;20509;-77
2022/11/26 07:32:59;;;;;;;;;;;;;;;3.38;100.00;102653.56;5065057;28;20402;-77
2022/11/26 07:35:25;;;;;;;;;;;;;;;3.42;100.00;102649.22;5065769;28;20518;-77
2022/11/26 07:37:50;;;;;;;;;;;;;;;3.49;100.00;102655.44;5044236;28;19932;-77
2022/11/26 07:40:16;;;;;;;;;;;;;;;3.57;100.00;102658.16;5065857;28;19953;-78
2022/11/26 07:42:41;;;;;;;;;;;;;;;3.64;100.00;102668.75;5061913;28;19929;-78
2022/11/26 07:45:06;;;;;;;;;;;;;;;3.69;100.00;102663.56;5064248;28;19929;-78
2022/11/26 07:47:32;;;;;;;;;;;;;;;3.71;100.00;102667.06;5061146;28;19928;-78
2022/11/26 07:49:58;;;;;;;;;;;;;;;3.74;100.00;102660.97;5065893;28;19928;-78
2022/11/26 07:52:25;;;;;;;;;;;;;;;3.78;100.00;102663.69;5063715;28;19962;-78
2022/11/26 07:54:53;;;;;;;;;;;;;;;3.86;100.00;102653.28;5063271;28;20383;-77
2022/11/26 07:57:21;;;;;;;;;;;;;;;3.94;100.00;102666.47;5062442;28;20348;-77
2022/11/26 07:59:46;;;;;;;;;;;;;;;3.98;100.00;102657.78;5062808;28;19952;-78
2022/11/26 08:02:13;;;;;;;;;;;;;;;4.02;100.00;102656.06;5063157;28;20023;-78
2022/11/26 08:04:38;;;;;;;;;;;;;;;4.08;100.00;102658.75;5063474;28;19929;-78
2022/11/26 08:07:04;;;;;;;;;;;;;;;4.12;100.00;102652.69;5062729;28;19970;-78
2022/11/26 08:09:29;;;;;;;;;;;;;;;4.17;100.00;102666.75;5059817;28;19950;-77
2022/11/26 08:11:55;;;;;;;;;;;;;;;4.21;100.00;102672.91;5063371;28;20003;-77
2022/11/26 08:14:20;;;;;;;;;;;;;;;4.22;100.00;102672.03;5064393;28;20559;-77
2022/11/26 08:16:45;;;;;;;;;;;;;;;4.25;100.00;102661.56;5050348;28;20046;-77
2022/11/26 08:19:12;;;;;;;;;;;;;;;4.26;100.00;102675.56;5061654;28;20009;-77
2022/11/26 08:21:38;;;;;;;;;;;;;;;4.27;100.00;102669.44;5062022;28;20382;-77
2022/11/26 08:24:04;;;;;;;;;;;;;;;4.28;100.00;102671.19;5062991;28;19934;-77
2022/11/26 08:26:29;;;;;;;;;;;;;;;4.33;100.00;102674.75;5062675;28;19963;-77
2022/11/26 08:28:55;;;;;;;;;;;;;;;4.37;100.00;102673.03;5063660;28;20463;-77
2022/11/26 08:31:23;;;;;;;;;;;;;;;4.42;100.00;102677.47;5045986;28;20653;-78
2022/11/26 08:33:48;;;;;;;;;;;;;;;4.47;100.00;102681.00;5065223;28;19928;-77
2022/11/26 08:36:14;;;;;;;;;;;;;;;4.48;100.00;102690.63;5062827;28;19946;-77
2022/11/26 08:38:39;;;;;;;;;;;;;;;4.45;100.00;102688.00;5061813;28;19951;-77
2022/11/26 08:41:11;;;;;;;;;;;;;;;4.44;100.00;102690.59;5062943;28;19925;-78
2022/11/26 08:43:37;;;;;;;;;;;;;;;4.44;100.00;102681.00;5057968;28;19929;-78
2022/11/26 08:46:03;;;;;;;;;;;;;;;4.44;100.00;102691.50;5059460;28;19924;-77
2022/11/26 08:48:29;;;;;;;;;;;;;;;4.47;100.00;102693.25;5078611;28;21597;-77
2022/11/26 08:50:58;;;;;;;;;;;;;;;4.48;100.00;102685.38;5065611;28;19966;-77
2022/11/26 08:53:23;;;;;;;;;;;;;;;4.52;100.00;102695.94;5064313;28;19927;-77
2022/11/26 08:55:49;;;;;;;;;;;;;;;4.55;100.00;102693.31;5064655;28;19994;-77
2022/11/26 08:58:14;;;;;;;;;;;;;;;4.58;100.00;102696.00;5063286;28;19924;-77
2022/11/26 09:00:40;;;;;;;;;;;;;;;4.62;100.00;102689.88;5054635;28;19957;-77
2022/11/26 09:03:06;;;;;;;;;;;;;;;4.66;100.00;102690.78;5051155;28;19928;-76
2022/11/26 09:05:31;;;;;;;;;;;;;;;4.70;100.00;102692.59;5058481;28;20402;-76
2022/11/26 09:07:57;;;;;;;;;;;;;;;4.74;100.00;102678.66;5067242;28;20027;-76
2022/11/26 09:10:22;;;;;;;;;;;;;;;4.80;100.00;102690.94;5061523;28;19919;-76
2022/11/26 09:12:47;;;;;;;;;;;;;;;4.85;100.00;102692.72;5057921;28;19964;-76
2022/11/26 09:15:13;;;;;;;;;;;;;;;4.92;100.00;102693.66;5061870;28;19928;-76
2022/11/26 09:17:38;;;;;;;;;;;;;;;5.00;100.00;102691.97;5079486;28;19924;-76
2022/11/26 09:20:04;;;;;;;;;;;;;;;5.11;100.00;102704.28;5046025;28;19968;-76
2022/11/26 09:22:30;;;;;;;;;;;;;;;5.16;100.00;102702.56;5062800;28;19920;-76
2022/11/26 09:24:55;;;;;;;;;;;;;;;5.26;100.00;102712.28;5059635;28;19928;-76
2022/11/26 09:27:21;;;;;;;;;;;;;;;5.32;100.00;102713.22;5054362;28;20477;-76
2022/11/26 09:29:46;;;;;;;;;;;;;;;5.38;100.00;102723.72;5062527;28;20178;-77
2022/11/26 09:32:11;;;;;;;;;;;;;;;5.44;100.00;102723.75;5055863;28;19932;-76
2022/11/26 09:34:37;;;;;;;;;;;;;;;5.50;100.00;102722.94;5059612;28;19983;-76
2022/11/26 09:37:02;;;;;;;;;;;;;;;5.55;100.00;102729.09;5057923;28;19931;-78
2022/11/26 09:39:28;;;;;;;;;;;;;;;5.61;100.00;102730.88;5054322;28;19929;-77
2022/11/26 09:41:53;;;;;;;;;;;;;;;5.68;100.00;102737.94;5056906;28;19987;-77
2022/11/26 09:44:19;;;;;;;;;;;;;;;5.74;100.00;102744.97;5056546;28;20350;-77
2022/11/26 09:47:03;;;;;;;;;;;;;;;5.78;100.00;102734.47;5055730;28;20547;-77
2022/11/26 09:49:29;;;;;;;;;;;;;;;5.85;100.00;102735.38;5057340;28;19937;-77
2022/11/26 09:51:55;;;;;;;;;;;;;;;5.90;100.00;102724.88;5058886;28;20540;-77
2022/11/26 09:54:21;;;;;;;;;;;;;;;5.94;100.00;102734.56;5060903;28;19973;-77
2022/11/26 09:56:52;;;;;;;;;;;;;;;5.96;100.00;102732.81;5040819;28;20027;-78
2022/11/26 09:59:17;;;;;;;;;;;;;;;6.00;100.00;102738.94;5056381;28;20415;-77
2022/11/26 10:01:43;;;;;;;;;;;;;;;6.03;100.00;102728.47;5054587;28;19932;-77
2022/11/26 10:04:08;;;;;;;;;;;;;;;6.06;100.00;102725.88;5047796;28;20015;-77
2022/11/26 10:06:37;;;;;;;;;;;;;;;6.09;100.00;102732.00;5057107;28;19928;-77
2022/11/26 10:09:08;;;;;;;;;;;;;;;6.13;100.00;102739.91;5057974;28;20460;-77
2022/11/26 10:11:52;;;;;;;;;;;;;;;6.16;100.00;102734.66;5058713;28;19928;-78
2022/11/26 10:14:27;;;;;;;;;;;;;;;6.20;100.00;102737.31;5047669;28;20001;-77
2022/11/26 10:17:11;;;;;;;;;;;;;;;6.23;100.00;102737.31;5054798;28;20340;-78
2022/11/26 10:19:36;;;;;;;;;;;;;;;6.27;100.00;102726.81;5062461;28;19943;-78
2022/11/26 10:22:08;;;;;;;;;;;;;;;6.30;100.00;102732.97;5058036;28;19931;-78
2022/11/26 10:24:35;;;;;;;;;;;;;;;6.35;100.00;102727.69;5054634;28;19964;-78
2022/11/26 10:27:03;;;;;;;;;;;;;;;6.37;100.00;102721.56;5058155;28;19928;-78
2022/11/26 10:29:41;;;;;;;;;;;;;;;6.43;100.00;102722.47;5058868;28;21499;-80
2022/11/26 10:32:21;;;;;;;;;;;;;;;6.46;100.00;102718.09;5038085;28;20134;-79
2022/11/26 10:34:48;;;;;;;;;;;;;;;6.49;100.00;102717.22;5051689;28;19928;-80
2022/11/26 10:37:14;;;;;;;;;;;;;;;6.53;100.00;102716.31;5050875;28;19955;-78
2022/11/26 10:39:39;;;;;;;;;;;;;;;6.57;100.00;102723.38;5052020;28;20092;-79
2022/11/26 10:42:16;;;;;;;;;;;;;;;6.59;100.00;102711.06;5060306;27;20402;-79
2022/11/26 10:44:41;;;;;;;;;;;;;;;6.62;100.00;102716.38;5061234;28;19936;-78
2022/11/26 10:47:18;;;;;;;;;;;;;;;6.63;100.00;102710.22;5054594;28;21680;-78
2022/11/26 10:49:44;;;;;;;;;;;;;;;6.66;100.00;102711.97;5062595;28;19928;-78
2022/11/26 10:52:11;;;;;;;;;;;;;;;6.66;100.00;102720.72;5055990;28;20778;-82
2022/11/26 10:54:37;;;;;;;;;;;;;;;6.68;100.00;102719.84;5054504;28;19924;-76
2022/11/26 10:57:08;;;;;;;;;;;;;;;6.69;100.00;102721.63;5044511;28;19970;-76
2022/11/26 10:59:39;;;;;;;;;;;;;;;6.71;100.00;102711.97;5042033;28;19924;-80
2022/11/26 11:02:05;;;;;;;;;;;;;;;6.73;100.00;102710.22;5056257;28;19930;-77
2022/11/26 11:04:32;;;;;;;;;;;;;;;6.73;100.00;102716.38;5057543;28;19930;-76
2022/11/26 11:06:58;;;;;;;;;;;;;;;6.74;100.00;102704.06;5052625;28;19929;-77
2022/11/26 11:09:24;;;;;;;;;;;;;;;6.76;100.00;102699.69;5054829;28;19924;-77
2022/11/26 11:12:08;;;;;;;;;;;;;;;6.78;100.00;102708.47;5058843;28;19971;-76
2022/11/26 11:14:34;;;;;;;;;;;;;;;6.81;100.00;102703.19;5054271;28;20389;-77
2022/11/26 11:16:59;;;;;;;;;;;;;;;6.83;100.00;102717.25;5054889;28;20171;-77
2022/11/26 11:19:25;;;;;;;;;;;;;;;6.84;100.00;102699.69;5041252;28;20023;-77
2022/11/26 11:21:50;;;;;;;;;;;;;;;6.86;100.00;102701.44;5040838;28;20409;-77
2022/11/26 11:24:17;;;;;;;;;;;;;;;6.89;100.00;102705.84;5044340;28;20249;-77
2022/11/26 11:26:43;;;;;;;;;;;;;;;6.91;100.00;102702.31;5052990;28;19956;-77
2022/11/26 11:29:27;;;;;;;;;;;;;;;6.93;100.00;102697.94;5055199;28;19924;-77
2022/11/26 11:31:54;;;;;;;;;;;;;;;6.95;100.00;102704.94;5057122;28;19924;-85
2022/11/26 11:34:20;;;;;;;;;;;;;;;6.97;100.00;102692.69;5043906;28;20042;-78
2022/11/26 11:37:02;;;;;;;;;;;;;;;6.98;100.00;102699.69;5056939;28;19932;-77
2022/11/26 11:39:29;;;;;;;;;;;;;;;7.00;100.00;102700.56;5054687;28;19928;-77
2022/11/26 11:41:54;;;;;;;;;;;;;;;6.99;100.00;102698.81;5054351;28;19989;-77
2022/11/26 11:44:23;;;;;;;;;;;;;;;7.01;100.00;102699.69;5056309;28;19928;-77
2022/11/26 11:46:51;;;;;;;;;;;;;;;7.02;100.00;102707.59;5061658;28;20029;-77
2022/11/26 11:49:20;;;;;;;;;;;;;;;7.02;100.00;102702.31;5060539;28;19928;-77
2022/11/26 11:51:49;;;;;;;;;;;;;;;7.04;100.00;102703.19;5058363;28;19929;-78
2022/11/26 11:54:18;;;;;;;;;;;;;;;7.07;100.00;102710.22;5061991;28;20011;-76
2022/11/26 11:56:45;;;;;;;;;;;;;;;7.11;100.00;102711.97;5063060;28;20365;-77
2022/11/26 11:59:46;;;;;;;;;;;;;;;7.17;100.00;102711.97;5058471;28;20013;-77
2022/11/26 12:02:25;;;;;;;;;;;;;;;7.23;100.00;102705.81;5059622;28;20509;-77
2022/11/26 12:05:09;;;;;;;;;;;;;;;7.25;100.00;102703.19;5061426;28;19928;-77
2022/11/26 12:07:38;;;;;;;;;;;;;;;7.27;100.00;102709.31;5060703;28;19928;-76
2022/11/26 12:10:15;;;;;;;;;;;;;;;7.29;100.00;102712.81;5061241;28;19928;-76
2022/11/26 12:12:52;;;;;;;;;;;;;;;7.31;100.00;102700.53;5060743;28;19923;-77
2022/11/26 12:15:24;;;;;;;;;;;;;;;7.35;100.00;102704.91;5062624;28;19932;-76
2022/11/26 12:17:52;;;;;;;;;;;;;;;7.37;100.00;102704.91;5056740;28;20380;-77
2022/11/26 12:20:32;;;;;;;;;;;;;;;7.39;100.00;102693.47;5037597;28;20506;-77
2022/11/26 12:23:04;;;;;;;;;;;;;;;7.41;100.00;102696.97;5062335;28;19935;-76
2022/11/26 12:25:30;;;;;;;;;;;;;;;7.41;100.00;102693.50;5059724;28;19940;-76
2022/11/26 12:27:56;;;;;;;;;;;;;;;7.41;100.00;102683.81;5043090;28;20014;-76
2022/11/26 12:30:22;;;;;;;;;;;;;;;7.42;100.00;102690.81;5058825;28;19924;-76
2022/11/26 12:32:47;;;;;;;;;;;;;;;7.42;100.00;102685.56;5055583;28;19946;-76
2022/11/26 12:35:23;;;;;;;;;;;;;;;7.43;100.00;102684.69;5059392;28;19920;-75